Time;durP1;ratioP1;P1;durP2;ratioP2;P2;SDS_P1;SDS_P2;PMS_P1;PMS_P2;Temp;Humidity;BMP_temperature;BMP_pressure;BME280_temperature;BME280_humidity;BME280_pressure;Samples;Min_cycle;Max_cycle;Signal;HPM_P1;HPM_P2
2022/03/04 00:00:47;;;;;;;26.20;15.45;;;;;;;;;;5021061;28;20504;-74
2022/03/04 00:03:13;;;;;;;24.05;15.27;;;;;;;;;;5024528;28;20426;-75
2022/03/04 00:05:39;;;;;;;27.23;15.48;;;;;;;;;;5022058;28;20407;-74
2022/03/04 00:08:06;;;;;;;25.58;15.05;;;;;;;;;;5024292;28;20495;-75
2022/03/04 00:10:32;;;;;;;25.00;15.00;;;;;;;;;;5007309;28;20246;-75
2022/03/04 00:12:58;;;;;;;23.95;14.60;;;;;;;;;;5023231;28;20518;-75
2022/03/04 00:15:24;;;;;;;22.95;14.18;;;;;;;;;;5025520;28;20589;-75
2022/03/04 00:17:51;;;;;;;23.38;13.52;;;;;;;;;;5022628;28;21926;-75
2022/03/04 00:20:17;;;;;;;21.08;13.43;;;;;;;;;;5024815;28;20514;-74
2022/03/04 00:22:43;;;;;;;23.17;14.48;;;;;;;;;;5022740;28;20495;-74
2022/03/04 00:25:09;;;;;;;21.80;13.20;;;;;;;;;;5008289;28;20434;-75
2022/03/04 00:27:35;;;;;;;23.90;13.80;;;;;;;;;;5008487;28;20038;-74
2022/03/04 00:30:01;;;;;;;21.63;13.18;;;;;;;;;;5023493;28;20053;-75
2022/03/04 00:32:28;;;;;;;20.63;12.25;;;;;;;;;;5027830;28;20515;-75
2022/03/04 00:34:54;;;;;;;20.80;12.75;;;;;;;;;;5013152;28;20042;-75
2022/03/04 00:37:20;;;;;;;19.48;13.05;;;;;;;;;;5029214;28;20509;-75
2022/03/04 00:39:46;;;;;;;21.30;13.23;;;;;;;;;;5022297;28;20042;-75
2022/03/04 00:42:12;;;;;;;20.73;13.02;;;;;;;;;;5023310;28;20040;-75
2022/03/04 00:44:38;;;;;;;19.52;11.70;;;;;;;;;;5024879;28;20053;-75
2022/03/04 00:47:08;;;;;;;19.95;11.55;;;;;;;;;;5024581;28;20125;-75
2022/03/04 00:49:34;;;;;;;19.90;12.32;;;;;;;;;;5006298;28;20458;-75
2022/03/04 00:52:01;;;;;;;20.00;12.07;;;;;;;;;;5023545;28;20046;-75
2022/03/04 00:54:27;;;;;;;17.02;11.75;;;;;;;;;;5024277;28;20047;-75
2022/03/04 00:56:53;;;;;;;17.10;11.45;;;;;;;;;;5023021;28;20077;-75
2022/03/04 00:59:19;;;;;;;18.05;11.15;;;;;;;;;;5021760;28;20061;-75
2022/03/04 01:01:45;;;;;;;19.05;11.20;;;;;;;;;;5004127;28;20047;-75
2022/03/04 01:04:12;;;;;;;17.50;11.30;;;;;;;;;;5021961;28;20128;-75
2022/03/04 01:06:39;;;;;;;18.33;11.30;;;;;;;;;;5023552;28;20487;-75
2022/03/04 01:09:05;;;;;;;17.33;11.70;;;;;;;;;;5021192;28;20038;-75
2022/03/04 01:11:31;;;;;;;20.15;11.43;;;;;;;;;;5023675;28;20059;-75
2022/03/04 01:13:57;;;;;;;18.15;10.63;;;;;;;;;;5023763;28;20057;-75
2022/03/04 01:16:24;;;;;;;15.30;10.82;;;;;;;;;;5022812;28;20522;-75
2022/03/04 01:18:50;;;;;;;17.63;11.25;;;;;;;;;;5007327;28;20038;-75
2022/03/04 01:21:16;;;;;;;16.08;10.57;;;;;;;;;;5022403;28;20033;-75
2022/03/04 01:23:42;;;;;;;16.55;10.82;;;;;;;;;;5023746;28;20060;-75
2022/03/04 01:26:08;;;;;;;17.15;10.00;;;;;;;;;;5008977;28;20041;-75
2022/03/04 01:28:34;;;;;;;17.10;10.95;;;;;;;;;;5022040;28;20040;-75
2022/03/04 01:31:01;;;;;;;17.52;11.13;;;;;;;;;;5027254;28;20034;-75
2022/03/04 01:33:27;;;;;;;18.17;10.88;;;;;;;;;;5011997;28;20522;-75
2022/03/04 01:35:53;;;;;;;18.45;11.57;;;;;;;;;;5026816;28;20033;-75
2022/03/04 01:38:19;;;;;;;19.65;11.65;;;;;;;;;;5027533;28;20490;-75
2022/03/04 01:40:45;;;;;;;15.90;10.70;;;;;;;;;;5030135;28;20041;-75
2022/03/04 01:43:11;;;;;;;17.45;10.95;;;;;;;;;;5033104;28;20060;-75
2022/03/04 01:45:37;;;;;;;17.48;11.13;;;;;;;;;;5016251;28;20480;-75
2022/03/04 01:48:03;;;;;;;20.40;11.05;;;;;;;;;;5026490;28;20519;-75
2022/03/04 01:50:29;;;;;;;21.65;11.98;;;;;;;;;;5026615;28;20568;-74
2022/03/04 01:52:55;;;;;;;22.00;12.70;;;;;;;;;;5026202;28;20041;-75
2022/03/04 01:55:22;;;;;;;19.90;12.25;;;;;;;;;;5026682;28;20790;-75
2022/03/04 01:57:48;;;;;;;21.20;12.48;;;;;;;;;;5025951;28;20495;-75
2022/03/04 02:00:15;;;;;;;19.63;12.88;;;;;;;;;;5025394;28;20495;-75
2022/03/04 02:02:42;;;;;;;20.48;12.48;;;;;;;;;;5027733;28;21478;-74
2022/03/04 02:05:12;;;;;;;20.08;11.77;;;;;;;;;;5027691;28;20385;-75
2022/03/04 02:07:38;;;;;;;21.58;12.45;;;;;;;;;;5026553;28;20083;-74
2022/03/04 02:10:04;;;;;;;21.38;12.25;;;;;;;;;;5026125;28;20388;-75
2022/03/04 02:12:30;;;;;;;20.10;11.77;;;;;;;;;;5027829;28;20396;-74
2022/03/04 02:14:56;;;;;;;23.13;13.35;;;;;;;;;;5023044;28;20080;-74
2022/03/04 02:17:22;;;;;;;22.15;13.60;;;;;;;;;;5025531;28;20400;-74
2022/03/04 02:19:52;;;;;;;22.08;13.27;;;;;;;;;;5024977;28;20048;-75
2022/03/04 02:22:18;;;;;;;27.00;13.15;;;;;;;;;;5026786;28;20182;-74
2022/03/04 02:24:45;;;;;;;23.20;12.45;;;;;;;;;;5009017;28;20731;-74
2022/03/04 02:27:11;;;;;;;20.40;12.82;;;;;;;;;;5010671;28;20400;-74
2022/03/04 02:29:37;;;;;;;25.73;14.38;;;;;;;;;;5026142;28;20388;-74
2022/03/04 02:32:04;;;;;;;20.92;12.98;;;;;;;;;;5025986;28;20041;-75
2022/03/04 02:34:31;;;;;;;24.23;13.70;;;;;;;;;;5026616;28;20088;-74
2022/03/04 02:36:57;;;;;;;26.50;13.70;;;;;;;;;;5024924;28;20465;-74
2022/03/04 02:39:23;;;;;;;27.55;14.90;;;;;;;;;;5006507;28;20116;-74
2022/03/04 02:41:49;;;;;;;25.38;14.15;;;;;;;;;;5010604;28;22393;-74
2022/03/04 02:44:16;;;;;;;24.70;14.23;;;;;;;;;;5026098;28;20446;-74
2022/03/04 02:46:42;;;;;;;27.23;14.52;;;;;;;;;;5026262;28;20057;-74
2022/03/04 02:49:09;;;;;;;27.50;16.02;;;;;;;;;;5024062;28;20533;-74
2022/03/04 02:51:35;;;;;;;28.25;15.88;;;;;;;;;;5025576;28;20034;-74
2022/03/04 02:54:02;;;;;;;30.05;16.08;;;;;;;;;;5003683;28;20041;-74
2022/03/04 02:56:28;;;;;;;25.55;14.88;;;;;;;;;;5023294;28;20387;-74
2022/03/04 02:58:54;;;;;;;28.13;15.15;;;;;;;;;;5025409;28;20044;-74
2022/03/04 03:01:20;;;;;;;27.10;16.13;;;;;;;;;;5023701;28;20499;-74
2022/03/04 03:03:46;;;;;;;26.08;16.02;;;;;;;;;;5027382;28;20506;-74
2022/03/04 03:06:12;;;;;;;27.20;15.32;;;;;;;;;;5024493;28;20562;-75
2022/03/04 03:08:39;;;;;;;27.77;15.82;;;;;;;;;;5025194;28;20667;-74
2022/03/04 03:11:05;;;;;;;26.58;15.98;;;;;;;;;;5022931;28;20042;-74
2022/03/04 03:13:31;;;;;;;26.92;16.17;;;;;;;;;;5007828;28;20041;-74
2022/03/04 03:15:57;;;;;;;30.60;16.23;;;;;;;;;;5020555;28;20527;-74
2022/03/04 03:18:23;;;;;;;26.92;16.35;;;;;;;;;;5019554;28;20507;-74
2022/03/04 03:20:49;;;;;;;28.88;15.88;;;;;;;;;;5022676;28;20525;-74
2022/03/04 03:23:15;;;;;;;26.80;15.55;;;;;;;;;;5009270;28;20138;-74
2022/03/04 03:25:41;;;;;;;29.60;15.93;;;;;;;;;;5003381;28;20049;-74
2022/03/04 03:28:07;;;;;;;30.63;16.45;;;;;;;;;;5020624;28;20042;-74
2022/03/04 03:30:34;;;;;;;30.25;16.70;;;;;;;;;;5023573;28;20037;-74
2022/03/04 03:33:00;;;;;;;29.25;17.25;;;;;;;;;;5019640;28;20041;-74
2022/03/04 03:35:27;;;;;;;26.98;16.20;;;;;;;;;;5021182;28;20520;-74
2022/03/04 03:37:53;;;;;;;28.88;17.42;;;;;;;;;;5025076;28;20136;-74
2022/03/04 03:40:19;;;;;;;29.83;17.35;;;;;;;;;;5023480;28;20467;-74
2022/03/04 03:42:45;;;;;;;30.65;17.73;;;;;;;;;;5021893;28;20034;-74
2022/03/04 03:45:12;;;;;;;31.42;17.90;;;;;;;;;;5022319;28;21030;-74
2022/03/04 03:47:38;;;;;;;33.13;18.25;;;;;;;;;;5023882;28;20045;-74
2022/03/04 03:50:06;;;;;;;31.80;18.17;;;;;;;;;;5023853;28;20048;-74
2022/03/04 03:52:32;;;;;;;31.50;18.10;;;;;;;;;;5022357;28;20075;-74
2022/03/04 03:54:58;;;;;;;30.73;18.10;;;;;;;;;;5023240;28;20160;-75
2022/03/04 03:57:25;;;;;;;32.17;17.58;;;;;;;;;;5022064;28;21639;-74
2022/03/04 03:59:51;;;;;;;33.75;19.33;;;;;;;;;;5023515;28;20380;-74
2022/03/04 04:02:17;;;;;;;31.90;18.35;;;;;;;;;;5019870;28;20506;-74
2022/03/04 04:04:44;;;;;;;37.83;20.45;;;;;;;;;;5022884;28;20499;-74
2022/03/04 04:07:12;;;;;;;36.70;19.63;;;;;;;;;;5005639;28;20376;-74
2022/03/04 04:09:38;;;;;;;37.50;20.73;;;;;;;;;;5020423;28;20029;-74
2022/03/04 04:12:04;;;;;;;39.10;20.40;;;;;;;;;;5018163;28;20538;-74
2022/03/04 04:14:30;;;;;;;33.22;19.55;;;;;;;;;;5017765;28;20037;-74
2022/03/04 04:16:57;;;;;;;36.38;20.67;;;;;;;;;;5018751;28;20431;-74
2022/03/04 04:19:24;;;;;;;37.33;20.13;;;;;;;;;;5019354;28;20056;-74
2022/03/04 04:21:51;;;;;;;34.88;19.25;;;;;;;;;;5019229;28;20056;-74
2022/03/04 04:24:18;;;;;;;37.33;19.88;;;;;;;;;;5003351;28;20403;-74
2022/03/04 04:26:44;;;;;;;36.88;20.35;;;;;;;;;;5020625;28;20451;-74
2022/03/04 04:29:11;;;;;;;38.17;20.88;;;;;;;;;;5020596;28;20357;-74
2022/03/04 04:31:38;;;;;;;33.42;20.25;;;;;;;;;;5016466;28;20120;-74
2022/03/04 04:34:04;;;;;;;34.83;20.92;;;;;;;;;;5018219;28;20033;-74
2022/03/04 04:36:30;;;;;;;36.30;20.85;;;;;;;;;;5021201;28;20037;-74
2022/03/04 04:38:56;;;;;;;40.38;21.85;;;;;;;;;;5020136;28;20499;-74
2022/03/04 04:41:22;;;;;;;36.08;21.40;;;;;;;;;;5019831;28;20139;-74
2022/03/04 04:43:48;;;;;;;43.72;22.92;;;;;;;;;;5020952;28;20940;-74
2022/03/04 04:46:15;;;;;;;37.53;21.58;;;;;;;;;;5018948;28;20038;-74
2022/03/04 04:48:41;;;;;;;42.88;24.50;;;;;;;;;;5021190;28;20128;-74
2022/03/04 04:51:07;;;;;;;40.05;23.00;;;;;;;;;;5019324;28;20037;-74
2022/03/04 04:53:34;;;;;;;41.67;22.67;;;;;;;;;;5023142;28;20065;-74
2022/03/04 04:56:00;;;;;;;41.75;22.45;;;;;;;;;;5002108;28;20095;-74
2022/03/04 04:58:26;;;;;;;41.88;23.52;;;;;;;;;;5021457;28;20048;-74
2022/03/04 05:00:55;;;;;;;41.85;23.95;;;;;;;;;;5017080;28;20041;-74
2022/03/04 05:03:22;;;;;;;40.60;23.45;;;;;;;;;;5026422;28;20039;-74
2022/03/04 05:05:48;;;;;;;40.25;24.42;;;;;;;;;;5022068;28;20041;-74
2022/03/04 05:08:14;;;;;;;45.72;24.60;;;;;;;;;;5027340;28;20038;-74
2022/03/04 05:10:41;;;;;;;42.88;24.10;;;;;;;;;;5028084;28;20128;-74
2022/03/04 05:13:07;;;;;;;45.35;24.55;;;;;;;;;;5027750;28;20072;-74
2022/03/04 05:15:33;;;;;;;40.63;24.15;;;;;;;;;;5023201;28;20037;-74
2022/03/04 05:17:59;;;;;;;41.22;24.15;;;;;;;;;;5009959;28;20099;-74
2022/03/04 05:20:25;;;;;;;43.33;24.17;;;;;;;;;;5026117;28;20069;-75
2022/03/04 05:22:51;;;;;;;45.95;24.58;;;;;;;;;;5023391;28;20056;-74
2022/03/04 05:25:17;;;;;;;41.30;24.05;;;;;;;;;;5023617;28;20056;-74
2022/03/04 05:27:43;;;;;;;46.05;24.58;;;;;;;;;;5025546;28;20159;-74
2022/03/04 05:30:09;;;;;;;43.72;25.77;;;;;;;;;;5022735;28;20037;-74
2022/03/04 05:32:35;;;;;;;47.03;25.42;;;;;;;;;;5023855;28;20053;-74
2022/03/04 05:35:02;;;;;;;47.53;26.35;;;;;;;;;;5021845;28;20176;-74
2022/03/04 05:37:28;;;;;;;48.33;25.38;;;;;;;;;;5028439;28;20037;-74
2022/03/04 05:39:54;;;;;;;47.90;25.27;;;;;;;;;;5025242;28;20057;-74
2022/03/04 05:42:20;;;;;;;48.55;25.92;;;;;;;;;;5009496;28;20118;-74
2022/03/04 05:44:46;;;;;;;47.05;25.52;;;;;;;;;;5012335;28;20046;-74
2022/03/04 05:47:12;;;;;;;46.67;26.77;;;;;;;;;;5022866;28;20626;-74
2022/03/04 05:49:38;;;;;;;48.55;27.13;;;;;;;;;;5028222;28;20044;-74
2022/03/04 05:52:05;;;;;;;44.30;25.75;;;;;;;;;;5025977;28;20123;-75
2022/03/04 05:54:31;;;;;;;47.70;24.85;;;;;;;;;;5004013;28;20044;-74
2022/03/04 05:56:57;;;;;;;49.58;26.85;;;;;;;;;;5018559;28;20049;-74
2022/03/04 05:59:23;;;;;;;46.05;25.50;;;;;;;;;;5010718;28;20180;-75
2022/03/04 06:01:49;;;;;;;45.25;24.70;;;;;;;;;;5040904;28;20046;-75
2022/03/04 06:04:15;;;;;;;44.58;24.88;;;;;;;;;;5024035;28;20037;-75
2022/03/04 06:06:41;;;;;;;46.20;26.05;;;;;;;;;;5025438;28;20051;-74
2022/03/04 06:09:07;;;;;;;46.42;24.65;;;;;;;;;;5025309;28;20403;-74
2022/03/04 06:11:33;;;;;;;40.90;24.75;;;;;;;;;;5024674;28;20063;-74
2022/03/04 06:13:59;;;;;;;41.45;24.30;;;;;;;;;;5024513;28;20392;-74
2022/03/04 06:16:25;;;;;;;40.88;24.48;;;;;;;;;;5022630;28;20033;-74
2022/03/04 06:18:52;;;;;;;42.47;24.08;;;;;;;;;;5022619;28;20041;-75
2022/03/04 06:21:18;;;;;;;40.50;24.63;;;;;;;;;;5024060;28;20044;-74
2022/03/04 06:23:45;;;;;;;45.47;25.63;;;;;;;;;;5025141;28;20156;-74
2022/03/04 06:26:11;;;;;;;43.50;25.55;;;;;;;;;;5022703;28;20037;-74
2022/03/04 06:28:37;;;;;;;40.05;24.55;;;;;;;;;;5028503;28;20052;-74
2022/03/04 06:31:04;;;;;;;41.13;24.73;;;;;;;;;;5021237;28;20055;-74
2022/03/04 06:33:30;;;;;;;41.50;24.85;;;;;;;;;;5021521;28;20040;-74
2022/03/04 06:35:57;;;;;;;39.97;24.85;;;;;;;;;;5008784;28;20033;-74
2022/03/04 06:38:23;;;;;;;40.08;24.55;;;;;;;;;;5010620;28;20037;-74
2022/03/04 06:40:50;;;;;;;43.90;26.35;;;;;;;;;;5021695;28;20045;-74
2022/03/04 06:43:16;;;;;;;43.55;26.13;;;;;;;;;;5027056;28;20041;-74
2022/03/04 06:45:43;;;;;;;44.92;26.08;;;;;;;;;;5028969;28;20041;-74
2022/03/04 06:48:09;;;;;;;44.75;26.13;;;;;;;;;;5008628;28;20029;-74
2022/03/04 06:50:35;;;;;;;39.50;25.42;;;;;;;;;;5018939;28;20057;-74
2022/03/04 06:53:01;;;;;;;41.90;25.77;;;;;;;;;;5004489;28;20047;-75
2022/03/04 06:55:30;;;;;;;41.60;26.02;;;;;;;;;;5007157;28;20038;-74
2022/03/04 06:57:56;;;;;;;43.60;25.70;;;;;;;;;;5021325;28;20040;-74
2022/03/04 07:00:24;;;;;;;45.28;26.58;;;;;;;;;;5004460;28;20391;-74
2022/03/04 07:02:51;;;;;;;45.65;27.20;;;;;;;;;;5020249;28;20067;-75
2022/03/04 07:05:17;;;;;;;46.20;26.55;;;;;;;;;;5018918;28;20048;-73
2022/03/04 07:07:43;;;;;;;44.38;26.58;;;;;;;;;;5020687;28;20195;-74
2022/03/04 07:10:09;;;;;;;46.72;27.08;;;;;;;;;;5005300;28;20046;-75
2022/03/04 07:12:36;;;;;;;48.05;27.48;;;;;;;;;;5003212;28;20046;-74
2022/03/04 07:15:02;;;;;;;45.35;27.70;;;;;;;;;;5017730;28;20495;-73
2022/03/04 07:17:28;;;;;;;44.55;27.33;;;;;;;;;;5006347;28;20033;-74
2022/03/04 07:19:54;;;;;;;43.90;26.55;;;;;;;;;;5030057;28;20041;-74
2022/03/04 07:22:21;;;;;;;50.75;27.50;;;;;;;;;;5030593;28;20117;-74
2022/03/04 07:24:47;;;;;;;41.08;25.42;;;;;;;;;;5028789;28;20074;-73
2022/03/04 07:27:13;;;;;;;43.88;26.52;;;;;;;;;;5018084;28;20038;-74
2022/03/04 07:29:39;;;;;;;45.58;26.85;;;;;;;;;;5002983;28;20041;-75
2022/03/04 07:32:05;;;;;;;44.45;25.30;;;;;;;;;;5009671;28;20508;-74
2022/03/04 07:34:31;;;;;;;41.63;26.13;;;;;;;;;;5006568;28;20377;-80
2022/03/04 07:36:57;;;;;;;41.38;25.20;;;;;;;;;;5019505;28;20037;-74
2022/03/04 07:39:23;;;;;;;42.10;26.73;;;;;;;;;;5020513;28;20060;-74
2022/03/04 07:41:51;;;;;;;39.72;25.73;;;;;;;;;;5020801;28;20570;-73
2022/03/04 07:44:17;;;;;;;41.63;25.90;;;;;;;;;;5022258;28;20407;-74
2022/03/04 07:46:43;;;;;;;46.42;27.08;;;;;;;;;;5008782;28;20435;-73
2022/03/04 07:49:09;;;;;;;44.38;26.60;;;;;;;;;;5019438;28;20053;-73
2022/03/04 07:51:36;;;;;;;43.45;26.63;;;;;;;;;;5023048;28;20506;-73
2022/03/04 07:54:02;;;;;;;40.65;26.50;;;;;;;;;;5021325;28;20050;-74
2022/03/04 07:56:28;;;;;;;42.40;26.23;;;;;;;;;;5022314;28;20387;-74
2022/03/04 07:58:54;;;;;;;44.20;25.75;;;;;;;;;;5022892;28;20373;-73
2022/03/04 08:01:20;;;;;;;40.25;25.05;;;;;;;;;;5022385;28;20987;-74
2022/03/04 08:03:46;;;;;;;40.47;26.10;;;;;;;;;;5020553;28;20687;-73
2022/03/04 08:06:12;;;;;;;41.33;26.13;;;;;;;;;;5005210;28;20500;-73
2022/03/04 08:08:39;;;;;;;45.05;26.58;;;;;;;;;;5020297;28;20057;-73
2022/03/04 08:11:05;;;;;;;42.00;25.80;;;;;;;;;;5016384;28;20057;-73
2022/03/04 08:13:31;;;;;;;38.65;24.85;;;;;;;;;;5008053;28;20041;-74
2022/03/04 08:15:58;;;;;;;40.63;25.40;;;;;;;;;;5026356;28;20461;-74
2022/03/04 08:18:24;;;;;;;39.67;24.75;;;;;;;;;;5018682;28;20917;-73
2022/03/04 08:20:50;;;;;;;40.05;24.38;;;;;;;;;;5004641;28;20173;-73
2022/03/04 08:23:17;;;;;;;40.30;25.05;;;;;;;;;;5021925;28;20045;-73
2022/03/04 08:25:44;;;;;;;41.30;24.60;;;;;;;;;;5025230;28;20052;-73
2022/03/04 08:28:10;;;;;;;39.45;25.20;;;;;;;;;;5024450;28;20448;-73
2022/03/04 08:30:36;;;;;;;39.40;25.35;;;;;;;;;;5022013;28;20133;-73
2022/03/04 08:33:02;;;;;;;36.63;23.40;;;;;;;;;;5022515;28;20045;-74
2022/03/04 08:35:28;;;;;;;37.47;24.80;;;;;;;;;;5030261;28;20060;-73
2022/03/04 08:37:55;;;;;;;36.00;23.52;;;;;;;;;;5008382;28;20446;-74
2022/03/04 08:40:21;;;;;;;38.70;25.02;;;;;;;;;;5022236;28;20107;-74
2022/03/04 08:42:47;;;;;;;43.33;26.55;;;;;;;;;;5023627;28;20042;-74
2022/03/04 08:45:14;;;;;;;40.58;26.25;;;;;;;;;;5024404;28;20049;-73
2022/03/04 08:47:43;;;;;;;40.90;25.02;;;;;;;;;;5009567;28;20061;-73
2022/03/04 08:50:11;;;;;;;42.00;26.50;;;;;;;;;;4991005;28;20430;-73
2022/03/04 08:52:37;;;;;;;48.28;28.40;;;;;;;;;;5020884;28;20038;-74
2022/03/04 08:55:05;;;;;;;44.88;27.67;;;;;;;;;;5024609;28;20041;-74
2022/03/04 08:57:31;;;;;;;42.33;26.75;;;;;;;;;;5023239;28;20046;-74
2022/03/04 08:59:58;;;;;;;44.67;25.90;;;;;;;;;;5036524;28;20060;-74
2022/03/04 09:02:24;;;;;;;42.65;27.15;;;;;;;;;;5018394;28;20038;-74
2022/03/04 09:04:50;;;;;;;40.65;25.85;;;;;;;;;;4991434;28;20049;-74
2022/03/04 09:07:17;;;;;;;41.72;25.23;;;;;;;;;;5023010;28;20215;-73
2022/03/04 09:09:43;;;;;;;42.88;26.02;;;;;;;;;;5022263;28;20045;-74
2022/03/04 09:12:10;;;;;;;39.72;25.00;;;;;;;;;;5023761;28;20124;-74
2022/03/04 09:14:36;;;;;;;41.92;25.77;;;;;;;;;;5022040;28;20038;-74
2022/03/04 09:17:02;;;;;;;40.63;26.13;;;;;;;;;;5029571;28;20041;-74
2022/03/04 09:19:30;;;;;;;42.00;26.75;;;;;;;;;;5009501;28;20427;-74
2022/03/04 09:21:57;;;;;;;40.60;25.67;;;;;;;;;;5023604;28;20049;-74
2022/03/04 09:24:23;;;;;;;41.00;26.27;;;;;;;;;;5022037;28;20048;-74
2022/03/04 09:26:49;;;;;;;42.33;25.50;;;;;;;;;;5008108;28;20060;-74
2022/03/04 09:29:15;;;;;;;42.58;25.85;;;;;;;;;;5005547;28;20424;-74
2022/03/04 09:31:42;;;;;;;42.22;27.60;;;;;;;;;;5021494;28;20120;-73
2022/03/04 09:34:08;;;;;;;45.08;28.85;;;;;;;;;;5023652;28;20041;-74
2022/03/04 09:36:34;;;;;;;42.75;27.23;;;;;;;;;;5020846;28;20034;-74
2022/03/04 09:39:00;;;;;;;43.90;27.48;;;;;;;;;;5022426;28;20041;-74
2022/03/04 09:41:26;;;;;;;41.15;25.98;;;;;;;;;;5024377;28;20037;-74
2022/03/04 09:43:54;;;;;;;41.55;26.10;;;;;;;;;;5020214;28;20052;-74
2022/03/04 09:46:21;;;;;;;43.30;27.13;;;;;;;;;;5019002;28;20044;-74
2022/03/04 09:48:48;;;;;;;38.53;25.17;;;;;;;;;;5028921;28;20057;-74
2022/03/04 09:51:14;;;;;;;54.22;36.90;;;;;;;;;;5030895;28;20034;-74
2022/03/04 09:53:40;;;;;;;40.97;26.35;;;;;;;;;;5021975;28;20037;-74
2022/03/04 09:56:06;;;;;;;44.30;29.08;;;;;;;;;;5009371;28;20124;-73
2022/03/04 09:58:33;;;;;;;41.83;27.58;;;;;;;;;;5028195;28;20044;-74
2022/03/04 10:00:59;;;;;;;44.42;27.63;;;;;;;;;;5022702;28;20104;-74
2022/03/04 10:03:31;;;;;;;44.63;28.95;;;;;;;;;;5049033;28;20049;-74
2022/03/04 10:06:01;;;;;;;44.97;27.67;;;;;;;;;;5030579;28;20034;-74
2022/03/04 10:08:27;;;;;;;44.58;28.60;;;;;;;;;;5013942;28;20037;-74
2022/03/04 10:10:54;;;;;;;43.08;27.95;;;;;;;;;;5029967;28;20072;-74
2022/03/04 10:13:39;;;;;;;41.45;26.00;;;;;;;;;;5032737;28;20069;-74
2022/03/04 10:16:05;;;;;;;41.78;26.15;;;;;;;;;;5013019;28;20036;-74
2022/03/04 10:18:31;;;;;;;42.33;26.70;;;;;;;;;;5021924;28;20045;-74
2022/03/04 10:20:57;;;;;;;36.15;25.80;;;;;;;;;;5026402;28;20188;-74
2022/03/04 10:23:25;;;;;;;35.03;23.77;;;;;;;;;;5026498;28;20045;-74
2022/03/04 10:25:52;;;;;;;33.67;23.65;;;;;;;;;;5028772;28;20045;-74
2022/03/04 10:28:19;;;;;;;35.25;24.60;;;;;;;;;;5024092;28;20041;-74
2022/03/04 10:30:46;;;;;;;39.28;25.95;;;;;;;;;;5022420;28;20125;-74
2022/03/04 10:33:17;;;;;;;36.78;25.80;;;;;;;;;;5023398;28;20033;-74
2022/03/04 10:35:43;;;;;;;37.10;24.98;;;;;;;;;;5027410;28;20083;-74
2022/03/04 10:38:23;;;;;;;40.78;26.85;;;;;;;;;;5032269;28;20048;-74
2022/03/04 10:40:50;;;;;;;39.05;26.70;;;;;;;;;;5032248;28;20037;-74
2022/03/04 10:43:23;;;;;;;41.65;27.15;;;;;;;;;;5031955;28;20072;-74
2022/03/04 10:45:58;;;;;;;43.08;27.17;;;;;;;;;;5015177;28;20053;-74
2022/03/04 10:48:24;;;;;;;42.30;28.15;;;;;;;;;;5031916;28;20041;-74
2022/03/04 10:50:50;;;;;;;43.40;28.75;;;;;;;;;;5015643;28;20037;-74
2022/03/04 10:53:20;;;;;;;40.80;28.33;;;;;;;;;;5032241;28;20388;-74
2022/03/04 10:55:46;;;;;;;41.38;28.52;;;;;;;;;;5014907;28;20049;-74
2022/03/04 10:58:15;;;;;;;41.30;27.38;;;;;;;;;;5030052;28;20052;-74
2022/03/04 11:00:42;;;;;;;39.83;26.83;;;;;;;;;;5035685;28;20048;-75
2022/03/04 11:03:08;;;;;;;39.55;27.10;;;;;;;;;;5028842;28;20045;-75
2022/03/04 11:05:34;;;;;;;38.80;26.70;;;;;;;;;;5030856;28;20037;-74
2022/03/04 11:08:01;;;;;;;37.85;25.42;;;;;;;;;;5030182;28;20119;-74
2022/03/04 11:10:27;;;;;;;38.80;26.23;;;;;;;;;;5029308;28;20099;-74
2022/03/04 11:12:53;;;;;;;38.67;26.10;;;;;;;;;;5045135;28;20037;-74
2022/03/04 11:15:21;;;;;;;35.38;24.95;;;;;;;;;;5030862;28;20128;-74
2022/03/04 11:17:48;;;;;;;35.05;24.95;;;;;;;;;;5033516;28;20132;-74
2022/03/04 11:20:14;;;;;;;33.97;24.73;;;;;;;;;;5030315;28;20056;-74
2022/03/04 11:22:41;;;;;;;36.08;25.90;;;;;;;;;;5005950;28;20037;-74
2022/03/04 11:25:10;;;;;;;36.70;26.02;;;;;;;;;;5025109;28;20096;-74
2022/03/04 11:27:40;;;;;;;35.92;24.20;;;;;;;;;;5031802;28;20175;-74
2022/03/04 11:30:06;;;;;;;32.67;23.55;;;;;;;;;;5027062;28;20041;-74
2022/03/04 11:32:32;;;;;;;33.50;23.80;;;;;;;;;;5030402;28;20077;-74
2022/03/04 11:34:58;;;;;;;30.35;23.75;;;;;;;;;;5030618;28;20116;-74
2022/03/04 11:37:24;;;;;;;30.52;23.52;;;;;;;;;;5014947;28;20552;-74
2022/03/04 11:40:05;;;;;;;30.23;22.65;;;;;;;;;;5023438;28;20041;-74
2022/03/04 11:42:36;;;;;;;30.92;23.02;;;;;;;;;;5025080;28;20403;-74
2022/03/04 11:45:02;;;;;;;28.65;22.45;;;;;;;;;;5029559;28;20045;-74
2022/03/04 11:47:37;;;;;;;29.63;20.75;;;;;;;;;;5030977;28;20045;-74
2022/03/04 11:50:22;;;;;;;27.25;21.10;;;;;;;;;;5026464;28;20045;-74
2022/03/04 11:52:49;;;;;;;25.23;19.63;;;;;;;;;;5030129;28;20073;-73
2022/03/04 11:55:21;;;;;;;24.10;18.05;;;;;;;;;;5029540;28;20041;-73
2022/03/04 11:57:49;;;;;;;23.00;17.40;;;;;;;;;;5013946;28;20541;-74
2022/03/04 12:00:16;;;;;;;22.58;17.33;;;;;;;;;;5025438;28;20049;-73
2022/03/04 12:02:42;;;;;;;20.90;17.33;;;;;;;;;;5030980;28;20045;-73
2022/03/04 12:05:14;;;;;;;21.08;16.65;;;;;;;;;;5012291;28;20034;-73
2022/03/04 12:07:45;;;;;;;19.98;15.63;;;;;;;;;;5031311;28;20046;-74
2022/03/04 12:10:11;;;;;;;19.35;15.52;;;;;;;;;;5012150;28;20487;-74
2022/03/04 12:12:38;;;;;;;19.48;15.65;;;;;;;;;;5027586;28;20034;-74
2022/03/04 12:15:16;;;;;;;18.00;14.48;;;;;;;;;;5013593;28;20049;-73
2022/03/04 12:17:52;;;;;;;19.25;14.75;;;;;;;;;;5007341;28;20175;-73
2022/03/04 12:20:26;;;;;;;17.42;13.68;;;;;;;;;;5028734;28;20041;-74
2022/03/04 12:22:57;;;;;;;19.98;13.95;;;;;;;;;;5028784;28;20081;-74
2022/03/04 12:25:23;;;;;;;15.00;12.27;;;;;;;;;;5034796;28;20072;-74
2022/03/04 12:27:54;;;;;;;14.00;10.93;;;;;;;;;;5018750;28;20061;-73
2022/03/04 12:30:21;;;;;;;14.70;11.50;;;;;;;;;;5009223;28;20041;-73
2022/03/04 12:32:52;;;;;;;15.27;12.57;;;;;;;;;;5027453;28;20052;-73
2022/03/04 12:35:19;;;;;;;14.60;12.35;;;;;;;;;;5012982;28;20080;-74
2022/03/04 12:37:45;;;;;;;15.82;11.93;;;;;;;;;;5030295;28;20041;-73
2022/03/04 12:40:12;;;;;;;15.52;12.25;;;;;;;;;;5027932;28;20124;-74
2022/03/04 12:42:38;;;;;;;15.60;12.02;;;;;;;;;;5034482;28;20034;-74
2022/03/04 12:45:10;;;;;;;156.02;17.60;;;;;;;;;;5028564;28;20442;-74
2022/03/04 12:47:36;;;;;;;15.07;11.85;;;;;;;;;;5026410;28;20041;-74
2022/03/04 12:50:06;;;;;;;14.45;11.70;;;;;;;;;;5028898;28;20042;-72
2022/03/04 12:52:32;;;;;;;14.68;11.60;;;;;;;;;;5007034;28;20041;-73
2022/03/04 12:55:05;;;;;;;14.52;11.52;;;;;;;;;;5028035;28;20037;-74
2022/03/04 12:57:31;;;;;;;13.43;11.15;;;;;;;;;;5012139;28;20507;-74
2022/03/04 12:59:58;;;;;;;13.77;11.13;;;;;;;;;;5027707;28;20053;-74
2022/03/04 13:02:32;;;;;;;14.73;11.70;;;;;;;;;;5011596;28;20048;-74
2022/03/04 13:04:59;;;;;;;18.13;11.90;;;;;;;;;;5009666;28;20045;-74
2022/03/04 13:07:25;;;;;;;15.25;12.70;;;;;;;;;;5029931;28;20041;-74
2022/03/04 13:09:54;;;;;;;13.20;10.98;;;;;;;;;;5006086;28;20038;-74
2022/03/04 13:12:21;;;;;;;13.75;10.75;;;;;;;;;;5027078;28;20044;-73
2022/03/04 13:14:47;;;;;;;13.55;10.27;;;;;;;;;;5011321;28;20086;-74
2022/03/04 13:17:14;;;;;;;11.98;9.77;;;;;;;;;;5030274;28;20407;-73
2022/03/04 13:19:40;;;;;;;14.20;10.32;;;;;;;;;;5028673;28;20124;-73
2022/03/04 13:22:08;;;;;;;14.90;10.77;;;;;;;;;;5023647;28;20443;-74
2022/03/04 13:24:34;;;;;;;14.02;11.10;;;;;;;;;;5028871;28;20092;-74
2022/03/04 13:27:04;;;;;;;13.45;10.82;;;;;;;;;;5033790;28;20054;-74
2022/03/04 13:29:40;;;;;;;12.43;10.98;;;;;;;;;;5025654;28;20064;-73
2022/03/04 13:32:09;;;;;;;13.18;11.55;;;;;;;;;;5034467;28;20191;-74
2022/03/04 13:34:36;;;;;;;15.02;11.38;;;;;;;;;;5032842;28;20045;-74
2022/03/04 13:37:06;;;;;;;16.20;11.23;;;;;;;;;;5015714;28;20038;-73
2022/03/04 13:39:33;;;;;;;13.85;11.77;;;;;;;;;;5029475;28;20450;-73
2022/03/04 13:42:19;;;;;;;15.45;11.70;;;;;;;;;;5030492;28;20038;-72
2022/03/04 13:44:48;;;;;;;15.25;11.68;;;;;;;;;;5031069;28;20103;-73
2022/03/04 13:47:14;;;;;;;17.05;12.07;;;;;;;;;;5000165;28;20037;-74
2022/03/04 13:49:41;;;;;;;14.82;11.60;;;;;;;;;;5031492;28;20029;-74
2022/03/04 13:52:07;;;;;;;15.25;12.48;;;;;;;;;;5015763;28;20099;-73
2022/03/04 13:54:45;;;;;;;14.32;12.05;;;;;;;;;;5030896;28;20041;-73
2022/03/04 13:57:32;;;;;;;14.38;12.60;;;;;;;;;;5032960;28;20045;-74
2022/03/04 14:00:10;;;;;;;18.88;14.63;;;;;;;;;;5032199;28;20091;-73
2022/03/04 14:02:40;;;;;;;15.43;13.43;;;;;;;;;;5033210;28;20038;-74
2022/03/04 14:05:07;;;;;;;15.15;12.93;;;;;;;;;;5031467;28;20049;-74
2022/03/04 14:07:44;;;;;;;14.85;13.13;;;;;;;;;;5001188;28;20077;-73
2022/03/04 14:10:11;;;;;;;14.65;13.07;;;;;;;;;;5033081;28;20041;-74
2022/03/04 14:12:38;;;;;;;16.45;13.15;;;;;;;;;;5033210;28;20038;-74
2022/03/04 14:15:04;;;;;;;16.10;14.38;;;;;;;;;;5032162;28;20034;-74